createdAt,value
2022-11-10T00:00:37.371Z,45.71
2022-11-10T00:03:05.143Z,45.87
2022-11-10T00:05:33.094Z,45.68
2022-11-10T00:08:00.943Z,45.56
2022-11-10T00:10:28.716Z,45.86
2022-11-10T00:13:01.570Z,45.33
2022-11-10T00:15:47.039Z,45.53
2022-11-10T00:18:14.770Z,45.86
2022-11-10T00:20:42.533Z,45.75
2022-11-10T00:23:10.421Z,45.91
2022-11-10T00:25:38.229Z,45.76
2022-11-10T00:28:06.005Z,45.77
2022-11-10T00:30:34.014Z,45.60
2022-11-10T00:33:01.917Z,45.64
2022-11-10T00:35:29.983Z,45.65
2022-11-10T00:37:57.828Z,45.42
2022-11-10T00:40:28.219Z,45.65
2022-11-10T00:42:56.016Z,45.84
2022-11-10T00:45:24.002Z,45.54
2022-11-10T00:47:51.809Z,45.88
2022-11-10T00:50:19.573Z,45.52
2022-11-10T00:52:47.493Z,45.45
2022-11-10T00:55:15.271Z,45.46
2022-11-10T00:57:43.018Z,45.69
2022-11-10T01:00:11.131Z,45.54
2022-11-10T01:02:38.910Z,45.67
2022-11-10T01:05:06.817Z,45.32
2022-11-10T01:07:34.572Z,45.49
2022-11-10T01:10:02.502Z,45.53
2022-11-10T01:12:30.293Z,45.54
2022-11-10T01:14:58.187Z,46.02
2022-11-10T01:17:26.000Z,45.75
2022-11-10T01:19:53.732Z,45.86
2022-11-10T01:22:21.616Z,45.46
2022-11-10T01:24:49.376Z,46.00
2022-11-10T01:27:17.346Z,45.74
2022-11-10T01:29:45.687Z,46.03
2022-11-10T01:32:13.801Z,45.54
2022-11-10T01:34:41.794Z,45.49
2022-11-10T01:37:09.581Z,45.76
2022-11-10T01:39:37.340Z,45.93
2022-11-10T01:42:05.318Z,45.57
2022-11-10T01:44:33.225Z,45.73
2022-11-10T01:47:01.060Z,45.82
2022-11-10T01:49:28.828Z,45.71
2022-11-10T01:51:56.588Z,46.01
2022-11-10T01:54:24.462Z,45.71
2022-11-10T01:56:52.282Z,46.02
2022-11-10T01:59:20.171Z,46.11
2022-11-10T02:01:47.978Z,45.94
2022-11-10T02:04:15.788Z,46.11
2022-11-10T02:06:43.600Z,46.10
2022-11-10T02:09:11.494Z,45.93
2022-11-10T02:11:39.239Z,45.69
2022-11-10T02:14:07.088Z,46.17
2022-11-10T02:16:34.849Z,46.25
2022-11-10T02:19:02.893Z,45.84
2022-11-10T02:21:30.650Z,46.17
2022-11-10T02:23:58.416Z,46.11
2022-11-10T02:26:26.230Z,45.99
2022-11-10T02:28:53.972Z,45.68
2022-11-10T02:31:21.734Z,46.06
2022-11-10T02:33:49.633Z,46.21
2022-11-10T02:36:17.441Z,45.65
2022-11-10T02:38:45.236Z,46.12
2022-11-10T02:41:13.036Z,45.64
2022-11-10T02:43:40.781Z,45.55
2022-11-10T02:46:08.770Z,45.88
2022-11-10T02:48:36.760Z,46.06
2022-11-10T02:51:04.630Z,46.15
2022-11-10T02:53:32.609Z,46.08
2022-11-10T02:56:00.399Z,45.63
2022-11-10T02:58:28.190Z,46.10
2022-11-10T03:00:56.294Z,46.03
2022-11-10T03:03:24.254Z,46.08
2022-11-10T03:05:52.461Z,45.91
2022-11-10T03:08:20.237Z,45.68
2022-11-10T03:10:47.984Z,45.35
2022-11-10T03:13:15.752Z,46.02
2022-11-10T03:15:43.488Z,45.81
2022-11-10T03:18:11.346Z,45.69
2022-11-10T03:20:39.162Z,46.21
2022-11-10T03:23:06.965Z,45.89
2022-11-10T03:25:34.954Z,45.98
2022-11-10T03:28:02.728Z,45.86
2022-11-10T03:30:30.708Z,46.32
2022-11-10T03:32:59.371Z,45.79
2022-11-10T03:35:27.249Z,46.04
2022-11-10T03:37:55.151Z,45.80
2022-11-10T03:40:22.913Z,46.19
2022-11-10T03:42:50.654Z,46.13
2022-11-10T03:45:18.538Z,45.88
2022-11-10T03:47:46.339Z,46.03
2022-11-10T03:50:14.239Z,46.30
2022-11-10T03:52:43.285Z,46.02
2022-11-10T03:55:11.252Z,46.10
2022-11-10T03:57:39.301Z,45.87
2022-11-10T04:00:07.330Z,45.81
2022-11-10T04:02:35.336Z,45.79
2022-11-10T04:05:20.517Z,45.99
2022-11-10T04:08:05.616Z,46.17
2022-11-10T04:10:33.521Z,45.92
2022-11-10T04:13:18.847Z,46.00
2022-11-10T04:15:46.815Z,45.98
2022-11-10T04:18:24.829Z,45.86
2022-11-10T04:20:52.802Z,45.94
2022-11-10T04:23:30.728Z,45.87
2022-11-10T04:26:16.217Z,45.61
2022-11-10T04:28:43.964Z,45.67
2022-11-10T04:31:11.762Z,46.17
2022-11-10T04:33:39.514Z,45.97
2022-11-10T04:36:07.294Z,46.05
2022-11-10T04:38:35.160Z,46.06
2022-11-10T04:41:03.026Z,45.83
2022-11-10T04:43:30.849Z,46.22
2022-11-10T04:45:58.613Z,46.05
2022-11-10T04:48:26.517Z,46.30
2022-11-10T04:50:54.230Z,46.33
2022-11-10T04:53:22.124Z,46.21
2022-11-10T04:55:50.086Z,46.29
2022-11-10T04:58:17.830Z,46.23
2022-11-10T05:00:45.611Z,45.95
2022-11-10T05:03:13.384Z,46.23
2022-11-10T05:05:41.240Z,46.05
2022-11-10T05:08:09.070Z,46.28
2022-11-10T05:10:36.805Z,46.09
2022-11-10T05:13:04.641Z,45.87
2022-11-10T05:15:32.412Z,45.99
2022-11-10T05:18:00.195Z,46.13
2022-11-10T05:20:27.904Z,46.43
2022-11-10T05:23:15.739Z,45.84
2022-11-10T05:25:44.836Z,45.84
2022-11-10T05:28:12.591Z,46.19
2022-11-10T05:30:40.382Z,45.91
2022-11-10T05:33:08.219Z,46.10
2022-11-10T05:35:36.016Z,46.29
2022-11-10T05:38:03.820Z,46.19
2022-11-10T05:40:31.611Z,45.95
2022-11-10T05:42:59.416Z,46.29
2022-11-10T05:45:27.254Z,46.06
2022-11-10T05:47:55.108Z,46.17
2022-11-10T05:50:22.849Z,46.18
2022-11-10T05:52:50.696Z,46.37
2022-11-10T05:55:18.509Z,46.42
2022-11-10T05:57:46.243Z,46.25
2022-11-10T06:00:14.074Z,46.71
2022-11-10T06:02:41.835Z,46.54
2022-11-10T06:05:09.670Z,46.71
2022-11-10T06:07:37.615Z,46.42
2022-11-10T06:10:05.511Z,46.85
2022-11-10T06:12:33.313Z,46.51
2022-11-10T06:15:01.374Z,46.83
2022-11-10T06:17:29.291Z,46.88
2022-11-10T06:19:57.264Z,46.37
2022-11-10T06:22:25.201Z,46.52
2022-11-10T06:24:53.154Z,46.45
2022-11-10T06:27:21.084Z,46.54
2022-11-10T06:29:48.998Z,46.39
2022-11-10T06:32:17.012Z,46.72
2022-11-10T06:34:45.109Z,46.93
2022-11-10T06:37:13.057Z,46.22
2022-11-10T06:39:40.965Z,46.48
2022-11-10T06:42:08.949Z,46.69
2022-11-10T06:44:36.837Z,46.36
2022-11-10T06:47:04.754Z,46.53
2022-11-10T06:49:32.676Z,46.00
2022-11-10T06:52:00.541Z,46.34
2022-11-10T06:54:28.526Z,46.56
2022-11-10T06:56:56.479Z,46.50
2022-11-10T06:59:24.515Z,46.01
2022-11-10T07:01:52.573Z,46.59
2022-11-10T07:04:20.842Z,46.17
2022-11-10T07:06:49.167Z,45.91
2022-11-10T07:09:17.241Z,46.13
2022-11-10T07:11:45.127Z,46.21
2022-11-10T07:14:13.022Z,46.12
2022-11-10T07:16:40.859Z,46.08
2022-11-10T07:19:08.782Z,46.23
2022-11-10T07:21:36.812Z,46.08
2022-11-10T07:24:04.697Z,46.11
2022-11-10T07:26:32.619Z,46.15
2022-11-10T07:29:00.593Z,46.22
2022-11-10T07:31:28.614Z,45.99
2022-11-10T07:33:56.524Z,46.32
2022-11-10T07:36:24.502Z,46.43
2022-11-10T07:38:52.397Z,46.14
2022-11-10T07:41:20.328Z,45.85
2022-11-10T07:43:48.223Z,45.88
2022-11-10T07:46:16.177Z,46.00
2022-11-10T07:48:44.120Z,46.10
2022-11-10T07:51:12.046Z,46.16
2022-11-10T07:53:40.132Z,45.83
2022-11-10T07:56:08.030Z,45.63
2022-11-10T07:58:36.025Z,46.33
2022-11-10T08:01:03.862Z,45.88
2022-11-10T08:03:31.871Z,46.09
2022-11-10T08:05:59.819Z,46.14
2022-11-10T08:08:27.733Z,46.05
2022-11-10T08:10:55.700Z,45.99
2022-11-10T08:13:23.986Z,46.13
2022-11-10T08:15:52.368Z,45.75
2022-11-10T08:18:20.309Z,46.23
2022-11-10T08:20:48.762Z,45.83
2022-11-10T08:23:16.690Z,45.92
2022-11-10T08:25:44.815Z,45.93
2022-11-10T08:28:12.803Z,46.30
2022-11-10T08:30:40.621Z,46.10
2022-11-10T08:33:08.561Z,46.00
2022-11-10T08:35:36.428Z,46.00
2022-11-10T08:38:09.025Z,46.01
2022-11-10T08:40:37.530Z,46.53
2022-11-10T08:43:07.497Z,46.25
2022-11-10T08:45:35.827Z,46.41
2022-11-10T08:48:03.782Z,46.31
2022-11-10T08:50:31.830Z,46.29
2022-11-10T08:52:59.842Z,46.44
2022-11-10T08:55:27.800Z,46.36
2022-11-10T08:57:55.759Z,46.26
2022-11-10T09:00:23.779Z,46.17
2022-11-10T09:02:51.885Z,46.07
2022-11-10T09:05:19.796Z,46.33
2022-11-10T09:07:47.695Z,46.22
2022-11-10T09:10:15.588Z,46.31
2022-11-10T09:12:43.482Z,46.05
2022-11-10T09:15:11.337Z,46.11
2022-11-10T09:17:39.438Z,46.32
2022-11-10T09:20:07.518Z,46.11
2022-11-10T09:22:35.480Z,45.87
2022-11-10T09:25:03.573Z,46.12
2022-11-10T09:27:31.423Z,46.08
2022-11-10T09:29:59.492Z,45.84
2022-11-10T09:32:27.445Z,46.58
2022-11-10T09:34:55.367Z,45.98
2022-11-10T09:37:23.260Z,45.72
2022-11-10T09:39:51.228Z,46.00
2022-11-10T09:42:19.155Z,45.56
2022-11-10T09:44:57.427Z,46.00
2022-11-10T09:50:13.535Z,45.99
2022-11-10T09:52:41.451Z,45.74
2022-11-10T09:55:09.375Z,46.07
2022-11-10T09:57:37.322Z,46.20
2022-11-10T10:00:05.381Z,45.82
2022-11-10T10:02:33.373Z,45.84
2022-11-10T10:05:01.298Z,45.96
2022-11-10T10:07:29.350Z,46.07
2022-11-10T10:09:57.397Z,45.98
2022-11-10T10:12:25.438Z,46.20
2022-11-10T10:14:57.729Z,46.32
2022-11-10T10:17:27.119Z,45.82
2022-11-10T10:19:55.292Z,45.88
2022-11-10T10:22:23.743Z,46.03
2022-11-10T10:24:53.277Z,45.84
2022-11-10T10:27:21.334Z,45.92
2022-11-10T10:29:49.537Z,46.17
2022-11-10T10:32:17.496Z,46.18
2022-11-10T10:34:45.387Z,46.15
2022-11-10T10:37:13.299Z,45.84
2022-11-10T10:39:41.813Z,46.16
2022-11-10T10:42:09.675Z,46.19
2022-11-10T10:44:37.757Z,46.34
2022-11-10T10:47:08.915Z,45.82
2022-11-10T10:49:36.968Z,45.78
2022-11-10T10:52:04.988Z,45.74
2022-11-10T10:54:33.057Z,45.72
2022-11-10T10:57:01.012Z,45.64
2022-11-10T10:59:28.974Z,45.77
2022-11-10T11:01:57.273Z,45.75
2022-11-10T11:04:35.623Z,45.69
2022-11-10T11:07:03.719Z,46.10
2022-11-10T11:09:31.794Z,45.77
2022-11-10T11:11:59.833Z,45.55
2022-11-10T11:14:27.829Z,46.01
2022-11-10T11:16:55.893Z,45.75
2022-11-10T11:19:26.699Z,46.00
2022-11-10T11:21:54.770Z,45.75
2022-11-10T11:24:22.691Z,46.26
2022-11-10T11:26:51.126Z,45.57
2022-11-10T11:29:19.077Z,45.99
2022-11-10T11:31:47.110Z,45.66
2022-11-10T11:34:15.193Z,45.98
2022-11-10T11:36:43.198Z,46.00
2022-11-10T11:39:11.185Z,46.22
2022-11-10T11:41:39.257Z,46.21
2022-11-10T11:44:07.314Z,46.16
2022-11-10T11:46:36.380Z,45.80
2022-11-10T11:49:06.813Z,45.75
2022-11-10T11:51:34.988Z,46.09
2022-11-10T11:54:02.920Z,46.00
2022-11-10T11:56:31.202Z,45.69
2022-11-10T11:58:59.326Z,45.55
2022-11-10T12:01:27.594Z,46.06
2022-11-10T12:03:58.421Z,46.11
2022-11-10T12:06:26.347Z,45.75
2022-11-10T12:08:59.272Z,45.71
2022-11-10T12:11:27.196Z,45.95
2022-11-10T12:13:55.208Z,46.02
2022-11-10T12:16:23.406Z,46.12
2022-11-10T12:18:51.159Z,45.94
2022-11-10T12:21:18.934Z,46.14
2022-11-10T12:23:46.867Z,45.74
2022-11-10T12:26:14.652Z,45.73
2022-11-10T12:28:42.472Z,45.64
2022-11-10T12:31:10.274Z,45.72
2022-11-10T12:33:38.055Z,45.63
2022-11-10T12:36:05.833Z,45.75
2022-11-10T12:38:33.667Z,45.95
2022-11-10T12:41:01.468Z,45.93
2022-11-10T12:43:29.541Z,46.04
2022-11-10T12:45:57.312Z,45.91
2022-11-10T12:48:25.341Z,45.63
2022-11-10T12:50:53.306Z,45.81
2022-11-10T12:53:21.097Z,45.75
2022-11-10T12:55:48.858Z,45.70
2022-11-10T12:58:16.682Z,45.90
2022-11-10T13:00:44.473Z,45.42
2022-11-10T13:03:12.362Z,45.96
2022-11-10T13:05:41.032Z,45.39
2022-11-10T13:08:08.837Z,45.53
2022-11-10T13:10:36.643Z,45.84
2022-11-10T13:13:04.478Z,45.47
2022-11-10T13:15:32.254Z,45.58
2022-11-10T13:18:00.123Z,45.52
2022-11-10T13:20:31.501Z,45.57
2022-11-10T13:22:59.577Z,45.57
2022-11-10T13:25:27.383Z,45.75
2022-11-10T13:27:55.127Z,46.04
2022-11-10T13:30:23.537Z,45.63
2022-11-10T13:32:51.620Z,45.71
2022-11-10T13:35:19.402Z,45.47
2022-11-10T13:37:51.586Z,45.87
2022-11-10T13:40:19.365Z,45.73
2022-11-10T13:42:47.412Z,45.58
2022-11-10T13:45:15.239Z,45.73
2022-11-10T13:47:43.057Z,45.67
2022-11-10T13:50:10.854Z,45.87
2022-11-10T13:52:38.645Z,45.51
2022-11-10T13:55:07.305Z,45.91
2022-11-10T13:57:37.392Z,46.00
2022-11-10T14:00:05.117Z,46.00
2022-11-10T14:02:32.911Z,45.94
2022-11-10T14:05:00.739Z,45.98
2022-11-10T14:07:28.507Z,45.84
2022-11-10T14:09:56.278Z,45.75
2022-11-10T14:12:24.302Z,46.09
2022-11-10T14:14:52.138Z,45.74
2022-11-10T14:17:19.929Z,46.17
2022-11-10T14:19:47.673Z,45.83
2022-11-10T14:22:15.409Z,45.47
2022-11-10T14:24:43.164Z,45.61
2022-11-10T14:27:10.958Z,45.52
2022-11-10T14:29:40.091Z,45.88
2022-11-10T14:32:07.871Z,46.03
2022-11-10T14:34:35.750Z,45.94
2022-11-10T14:37:03.528Z,45.65
2022-11-10T14:39:32.917Z,45.73
2022-11-10T14:42:00.755Z,45.38
2022-11-10T14:44:28.581Z,45.88
2022-11-10T14:46:56.431Z,45.69
2022-11-10T14:49:24.505Z,41.42
2022-11-10T14:51:52.285Z,35.31
2022-11-10T14:54:20.099Z,30.15
2022-11-10T14:56:47.946Z,26.27
2022-11-10T14:59:15.772Z,24.74
2022-11-10T15:01:44.936Z,23.82
2022-11-10T15:04:12.693Z,23.10
2022-11-10T15:06:45.813Z,23.40
2022-11-10T15:09:14.844Z,23.54
2022-11-10T15:11:42.692Z,23.66
2022-11-10T15:14:10.480Z,24.60
2022-11-10T15:16:38.756Z,25.47
2022-11-10T15:19:07.593Z,25.80
2022-11-10T15:21:35.432Z,26.73
2022-11-10T15:24:03.354Z,27.43
2022-11-10T15:26:31.163Z,28.15
2022-11-10T15:28:58.895Z,28.75
2022-11-10T15:31:26.685Z,29.18
2022-11-10T15:33:54.497Z,30.14
2022-11-10T15:36:22.390Z,30.96
2022-11-10T15:38:50.245Z,31.35
2022-11-10T15:41:20.691Z,32.53
2022-11-10T15:43:50.771Z,32.54
2022-11-10T15:46:18.852Z,33.32
2022-11-10T15:48:46.751Z,34.11
2022-11-10T15:51:14.521Z,34.09
2022-11-10T15:53:42.307Z,35.41
2022-11-10T15:56:10.115Z,35.87
2022-11-10T15:58:37.946Z,35.89
2022-11-10T16:01:05.905Z,36.14
2022-11-10T16:03:33.693Z,36.57
2022-11-10T16:06:01.536Z,36.96
2022-11-10T16:08:31.745Z,37.48
2022-11-10T16:10:59.525Z,37.79
2022-11-10T16:13:27.314Z,37.47
2022-11-10T16:15:55.144Z,38.39
2022-11-10T16:18:23.127Z,38.30
2022-11-10T16:20:51.168Z,38.48
2022-11-10T16:23:18.940Z,38.88
2022-11-10T16:25:46.781Z,38.63
2022-11-10T16:28:14.551Z,39.33
2022-11-10T16:30:42.845Z,38.87
2022-11-10T16:33:10.637Z,38.94
2022-11-10T16:35:38.492Z,39.30
2022-11-10T16:38:06.328Z,39.55
2022-11-10T16:40:34.144Z,39.21
2022-11-10T16:43:01.947Z,39.69
2022-11-10T16:45:30.670Z,40.07
2022-11-10T16:47:58.529Z,40.28
2022-11-10T16:50:26.270Z,40.15
2022-11-10T16:52:54.149Z,40.69
2022-11-10T16:55:22.071Z,40.63
2022-11-10T16:57:50.003Z,40.81
2022-11-10T17:00:17.787Z,40.80
2022-11-10T17:02:51.225Z,40.92
2022-11-10T17:05:22.257Z,41.25
2022-11-10T17:07:50.596Z,41.16
2022-11-10T17:10:18.522Z,40.71
2022-11-10T17:12:46.556Z,41.29
2022-11-10T17:15:15.354Z,41.59
2022-11-10T17:17:43.126Z,41.44
2022-11-10T17:20:10.975Z,41.77
2022-11-10T17:22:38.781Z,41.77
2022-11-10T17:25:06.805Z,42.07
2022-11-10T17:27:37.888Z,42.00
2022-11-10T17:30:06.095Z,41.87
2022-11-10T17:33:03.098Z,42.04
2022-11-10T17:35:22.089Z,41.91
2022-11-10T17:37:49.870Z,42.22
2022-11-10T17:40:18.182Z,41.92
2022-11-10T17:42:46.041Z,42.12
2022-11-10T17:45:13.940Z,42.17
2022-11-10T17:47:41.935Z,42.68
2022-11-10T17:50:09.806Z,42.72
2022-11-10T17:52:37.807Z,42.61
2022-11-10T17:55:05.610Z,42.49
2022-11-10T17:57:33.544Z,42.93
2022-11-10T18:00:01.312Z,42.62
2022-11-10T18:02:29.192Z,42.66
2022-11-10T18:04:57.187Z,42.49
2022-11-10T18:07:25.169Z,42.73
2022-11-10T18:09:52.980Z,43.02
2022-11-10T18:12:25.311Z,42.86
2022-11-10T18:14:55.529Z,42.87
2022-11-10T18:17:23.324Z,43.08
2022-11-10T18:19:51.133Z,43.30
2022-11-10T18:22:18.914Z,43.36
2022-11-10T18:24:46.827Z,43.28
2022-11-10T18:27:14.667Z,43.18
2022-11-10T18:29:42.438Z,42.93
2022-11-10T18:32:10.363Z,37.34
2022-11-10T18:34:38.129Z,33.15
2022-11-10T18:37:05.948Z,30.93
2022-11-10T18:39:33.669Z,30.19
2022-11-10T18:42:01.482Z,29.72
2022-11-10T18:44:29.747Z,29.58
2022-11-10T18:46:58.276Z,29.50
2022-11-10T18:49:26.081Z,30.03
2022-11-10T18:51:53.919Z,31.23
2022-11-10T18:54:21.666Z,31.78
2022-11-10T18:56:49.690Z,32.29
2022-11-10T18:59:17.635Z,33.17
2022-11-10T19:01:45.514Z,33.45
2022-11-10T19:04:13.563Z,34.34
2022-11-10T19:06:41.427Z,34.49
2022-11-10T19:09:09.565Z,35.36
2022-11-10T19:11:37.496Z,35.63
2022-11-10T19:14:05.723Z,36.00
2022-11-10T19:16:33.638Z,36.31
2022-11-10T19:19:01.958Z,36.33
2022-11-10T19:21:29.826Z,36.93
2022-11-10T19:23:57.705Z,36.85
2022-11-10T19:26:25.915Z,37.24
2022-11-10T19:28:55.619Z,37.56
2022-11-10T19:31:23.488Z,38.04
2022-11-10T19:33:51.520Z,38.38
2022-11-10T19:36:19.288Z,38.19
2022-11-10T19:38:47.087Z,38.85
2022-11-10T19:41:15.114Z,38.90
2022-11-10T19:43:47.298Z,39.15
2022-11-10T19:46:16.023Z,39.21
2022-11-10T19:48:43.968Z,39.59
2022-11-10T19:51:11.924Z,40.24
2022-11-10T19:53:39.718Z,40.23
2022-11-10T19:56:07.506Z,40.02
2022-11-10T19:58:35.537Z,40.58
2022-11-10T20:01:03.588Z,40.83
2022-11-10T20:03:31.510Z,40.57
2022-11-10T20:05:59.253Z,41.01
2022-11-10T20:08:27.115Z,41.22
2022-11-10T20:10:54.886Z,41.02
2022-11-10T20:13:22.981Z,40.96
2022-11-10T20:15:51.173Z,41.42
2022-11-10T20:18:19.037Z,41.28
2022-11-10T20:20:46.929Z,41.43
2022-11-10T20:23:15.837Z,41.81
2022-11-10T20:25:43.703Z,41.81
2022-11-10T20:28:13.943Z,41.79
2022-11-10T20:30:41.701Z,41.87
2022-11-10T20:33:09.473Z,42.21
2022-11-10T20:35:37.279Z,42.38
2022-11-10T20:38:05.251Z,42.28
2022-11-10T20:40:48.390Z,42.72
2022-11-10T20:43:16.260Z,42.82
2022-11-10T20:45:44.045Z,42.57
2022-11-10T20:48:11.920Z,42.72
2022-11-10T20:50:39.780Z,42.81
2022-11-10T20:53:07.548Z,42.60
2022-11-10T20:55:52.608Z,42.62
2022-11-10T20:58:24.309Z,42.74
2022-11-10T21:00:52.485Z,42.69
2022-11-10T21:03:20.460Z,43.11
2022-11-10T21:05:48.361Z,42.77
2022-11-10T21:08:16.255Z,43.14
2022-11-10T21:10:44.618Z,43.02
2022-11-10T21:13:11.352Z,42.84
2022-11-10T21:15:39.836Z,42.70
2022-11-10T21:18:07.866Z,43.14
2022-11-10T21:20:35.644Z,43.03
2022-11-10T21:23:03.863Z,43.27
2022-11-10T21:25:31.835Z,43.05
2022-11-10T21:28:00.101Z,43.14
2022-11-10T21:30:27.964Z,43.35
2022-11-10T21:32:58.030Z,42.76
2022-11-10T21:35:26.211Z,43.06
2022-11-10T21:37:54.226Z,43.23
2022-11-10T21:40:22.006Z,43.11
2022-11-10T21:42:50.030Z,43.44
2022-11-10T21:45:18.647Z,43.06
2022-11-10T21:47:46.686Z,42.92
2022-11-10T21:50:14.525Z,42.82
2022-11-10T21:52:42.322Z,42.74
2022-11-10T21:55:10.143Z,42.83
2022-11-10T21:57:37.977Z,43.05
2022-11-10T22:00:05.830Z,42.95
2022-11-10T22:02:33.593Z,42.95
2022-11-10T22:05:01.885Z,42.93
2022-11-10T22:07:29.638Z,42.86
2022-11-10T22:10:14.857Z,43.18
2022-11-10T22:13:00.039Z,42.97
2022-11-10T22:15:45.245Z,43.01
2022-11-10T22:18:30.727Z,43.15
2022-11-10T22:20:58.532Z,43.07
2022-11-10T22:23:40.430Z,43.20
2022-11-10T22:26:08.243Z,42.90
2022-11-10T22:28:36.019Z,43.10
2022-11-10T22:31:04.821Z,42.81
2022-11-10T22:33:35.103Z,43.09
2022-11-10T22:36:04.089Z,42.91
2022-11-10T22:38:31.884Z,42.71
2022-11-10T22:41:17.141Z,43.49
2022-11-10T22:44:02.419Z,43.28
2022-11-10T22:46:30.178Z,43.43
2022-11-10T22:48:58.043Z,43.34
2022-11-10T22:51:25.855Z,43.34
2022-11-10T22:53:53.709Z,43.33
2022-11-10T22:56:21.486Z,43.30
2022-11-10T23:01:17.190Z,43.54
2022-11-10T23:03:45.180Z,43.59
2022-11-10T23:06:13.043Z,43.34
2022-11-10T23:08:41.009Z,43.73
2022-11-10T23:11:08.833Z,43.80
2022-11-10T23:13:36.947Z,43.93
2022-11-10T23:16:04.745Z,43.90
2022-11-10T23:18:32.560Z,44.28
2022-11-10T23:21:00.336Z,43.91
2022-11-10T23:23:28.203Z,43.82
2022-11-10T23:25:55.987Z,43.84
2022-11-10T23:28:23.899Z,43.90
2022-11-10T23:30:51.705Z,43.97
2022-11-10T23:33:19.518Z,44.05
2022-11-10T23:35:47.501Z,43.98
2022-11-10T23:38:15.397Z,44.01
2022-11-10T23:40:43.324Z,43.98
2022-11-10T23:43:11.114Z,43.93
2022-11-10T23:46:05.278Z,44.16
2022-11-10T23:48:26.717Z,43.80
2022-11-10T23:50:55.191Z,43.90
2022-11-10T23:53:23.354Z,43.90
2022-11-10T23:55:51.361Z,43.70
2022-11-10T23:58:19.127Z,43.56
